sensor_id;sensor_type;location;lat;lon;timestamp;temperature;humidity
3942;DHT22;1985;48.592;8.850;2023-05-10T00:00:37;13.60;99.90
3942;DHT22;1985;48.592;8.850;2023-05-10T00:03:03;13.60;99.90
3942;DHT22;1985;48.592;8.850;2023-05-10T00:05:30;13.50;99.90
3942;DHT22;1985;48.592;8.850;2023-05-10T00:07:56;13.50;99.90
3942;DHT22;1985;48.592;8.850;2023-05-10T00:10:21;13.40;99.90
3942;DHT22;1985;48.592;8.850;2023-05-10T00:12:47;13.40;99.90
3942;DHT22;1985;48.592;8.850;2023-05-10T00:15:13;13.40;99.90
3942;DHT22;1985;48.592;8.850;2023-05-10T00:17:38;13.50;99.90
3942;DHT22;1985;48.592;8.850;2023-05-10T00:20:04;13.50;99.90
3942;DHT22;1985;48.592;8.850;2023-05-10T00:22:31;13.40;99.90
3942;DHT22;1985;48.592;8.850;2023-05-10T00:24:57;13.40;99.90
3942;DHT22;1985;48.592;8.850;2023-05-10T00:27:23;13.50;99.90
3942;DHT22;1985;48.592;8.850;2023-05-10T00:29:49;13.60;99.90
3942;DHT22;1985;48.592;8.850;2023-05-10T00:32:14;13.70;99.90
3942;DHT22;1985;48.592;8.850;2023-05-10T00:34:40;13.90;99.90
3942;DHT22;1985;48.592;8.850;2023-05-10T00:37:06;13.90;99.90
3942;DHT22;1985;48.592;8.850;2023-05-10T00:39:31;14.00;99.90
3942;DHT22;1985;48.592;8.850;2023-05-10T00:41:57;14.10;99.90
3942;DHT22;1985;48.592;8.850;2023-05-10T00:44:22;14.10;99.90
3942;DHT22;1985;48.592;8.850;2023-05-10T00:46:48;14.10;99.90
3942;DHT22;1985;48.592;8.850;2023-05-10T00:49:15;14.10;99.90
3942;DHT22;1985;48.592;8.850;2023-05-10T00:51:41;14.10;99.90
3942;DHT22;1985;48.592;8.850;2023-05-10T00:54:09;13.80;99.90
3942;DHT22;1985;48.592;8.850;2023-05-10T00:56:36;13.60;99.90
3942;DHT22;1985;48.592;8.850;2023-05-10T00:59:02;13.50;99.90
3942;DHT22;1985;48.592;8.850;2023-05-10T01:01:28;13.20;99.90
3942;DHT22;1985;48.592;8.850;2023-05-10T01:03:54;13.00;99.90
3942;DHT22;1985;48.592;8.850;2023-05-10T01:06:20;12.90;99.90
3942;DHT22;1985;48.592;8.850;2023-05-10T01:08:46;12.80;99.90
3942;DHT22;1985;48.592;8.850;2023-05-10T01:11:13;12.80;99.90
3942;DHT22;1985;48.592;8.850;2023-05-10T01:13:41;12.80;99.90
3942;DHT22;1985;48.592;8.850;2023-05-10T01:16:08;12.80;99.90
3942;DHT22;1985;48.592;8.850;2023-05-10T01:18:36;12.80;99.90
3942;DHT22;1985;48.592;8.850;2023-05-10T01:32:52;12.90;99.90
3942;DHT22;1985;48.592;8.850;2023-05-10T01:35:43;12.90;99.90
3942;DHT22;1985;48.592;8.850;2023-05-10T01:43:22;12.90;99.90
3942;DHT22;1985;48.592;8.850;2023-05-10T01:48:27;13.10;99.90
3942;DHT22;1985;48.592;8.850;2023-05-10T01:50:54;13.20;99.90
3942;DHT22;1985;48.592;8.850;2023-05-10T01:53:22;13.40;99.90
3942;DHT22;1985;48.592;8.850;2023-05-10T01:55:51;13.40;99.90
3942;DHT22;1985;48.592;8.850;2023-05-10T01:58:23;13.30;99.90
3942;DHT22;1985;48.592;8.850;2023-05-10T02:00:51;13.20;99.90
3942;DHT22;1985;48.592;8.850;2023-05-10T02:03:18;13.30;99.90
3942;DHT22;1985;48.592;8.850;2023-05-10T02:05:46;13.30;99.90
3942;DHT22;1985;48.592;8.850;2023-05-10T02:08:14;13.30;99.90
3942;DHT22;1985;48.592;8.850;2023-05-10T02:10:41;13.20;99.90
3942;DHT22;1985;48.592;8.850;2023-05-10T02:13:08;13.10;99.90
3942;DHT22;1985;48.592;8.850;2023-05-10T02:15:37;13.10;99.90
3942;DHT22;1985;48.592;8.850;2023-05-10T02:18:04;13.10;99.90
3942;DHT22;1985;48.592;8.850;2023-05-10T02:20:31;13.00;99.90
3942;DHT22;1985;48.592;8.850;2023-05-10T02:22:58;13.00;99.90
3942;DHT22;1985;48.592;8.850;2023-05-10T02:25:25;13.20;99.90
3942;DHT22;1985;48.592;8.850;2023-05-10T02:27:55;13.30;99.90
3942;DHT22;1985;48.592;8.850;2023-05-10T02:30:21;13.20;99.90
3942;DHT22;1985;48.592;8.850;2023-05-10T02:32:49;13.20;99.90
3942;DHT22;1985;48.592;8.850;2023-05-10T02:35:16;13.40;99.90
3942;DHT22;1985;48.592;8.850;2023-05-10T02:37:43;13.50;99.90
3942;DHT22;1985;48.592;8.850;2023-05-10T02:40:10;13.70;99.90
3942;DHT22;1985;48.592;8.850;2023-05-10T02:42:38;13.70;99.90
3942;DHT22;1985;48.592;8.850;2023-05-10T02:45:10;13.80;99.90
3942;DHT22;1985;48.592;8.850;2023-05-10T02:47:36;13.60;99.90
3942;DHT22;1985;48.592;8.850;2023-05-10T02:50:02;13.40;99.90
3942;DHT22;1985;48.592;8.850;2023-05-10T02:52:39;13.30;99.90
3942;DHT22;1985;48.592;8.850;2023-05-10T02:55:05;13.20;99.90
3942;DHT22;1985;48.592;8.850;2023-05-10T02:57:35;13.20;99.90
3942;DHT22;1985;48.592;8.850;2023-05-10T03:00:04;13.10;99.90
3942;DHT22;1985;48.592;8.850;2023-05-10T03:02:30;13.10;99.90
3942;DHT22;1985;48.592;8.850;2023-05-10T03:04:56;13.10;99.90
3942;DHT22;1985;48.592;8.850;2023-05-10T03:07:22;13.00;99.90
3942;DHT22;1985;48.592;8.850;2023-05-10T03:09:48;12.80;99.90
3942;DHT22;1985;48.592;8.850;2023-05-10T03:15:37;12.80;99.90
3942;DHT22;1985;48.592;8.850;2023-05-10T03:18:15;12.60;99.90
3942;DHT22;1985;48.592;8.850;2023-05-10T03:20:43;12.60;99.90
3942;DHT22;1985;48.592;8.850;2023-05-10T03:23:22;12.50;99.90
3942;DHT22;1985;48.592;8.850;2023-05-10T03:25:52;12.40;99.90
3942;DHT22;1985;48.592;8.850;2023-05-10T03:28:18;12.30;99.90
3942;DHT22;1985;48.592;8.850;2023-05-10T03:30:46;12.30;99.90
3942;DHT22;1985;48.592;8.850;2023-05-10T03:33:12;12.40;99.90
3942;DHT22;1985;48.592;8.850;2023-05-10T03:35:40;12.50;99.90
3942;DHT22;1985;48.592;8.850;2023-05-10T03:38:06;12.50;99.90
3942;DHT22;1985;48.592;8.850;2023-05-10T03:40:31;12.50;99.90
3942;DHT22;1985;48.592;8.850;2023-05-10T03:42:58;12.60;99.90
3942;DHT22;1985;48.592;8.850;2023-05-10T03:45:24;12.70;99.90
3942;DHT22;1985;48.592;8.850;2023-05-10T03:47:50;12.70;99.90
3942;DHT22;1985;48.592;8.850;2023-05-10T03:50:15;12.80;99.90
3942;DHT22;1985;48.592;8.850;2023-05-10T03:52:41;12.90;99.90
3942;DHT22;1985;48.592;8.850;2023-05-10T03:55:07;12.90;99.90
3942;DHT22;1985;48.592;8.850;2023-05-10T03:57:33;13.10;99.90
3942;DHT22;1985;48.592;8.850;2023-05-10T03:59:59;13.20;99.90
3942;DHT22;1985;48.592;8.850;2023-05-10T04:02:25;13.30;99.90
3942;DHT22;1985;48.592;8.850;2023-05-10T04:04:50;13.30;99.90
3942;DHT22;1985;48.592;8.850;2023-05-10T04:07:16;13.30;99.90
3942;DHT22;1985;48.592;8.850;2023-05-10T04:09:42;13.40;99.90
3942;DHT22;1985;48.592;8.850;2023-05-10T04:12:07;13.50;99.90
3942;DHT22;1985;48.592;8.850;2023-05-10T04:14:33;13.50;99.90
3942;DHT22;1985;48.592;8.850;2023-05-10T04:16:58;13.50;99.90
3942;DHT22;1985;48.592;8.850;2023-05-10T04:19:29;13.60;99.90
3942;DHT22;1985;48.592;8.850;2023-05-10T04:21:54;13.60;99.90
3942;DHT22;1985;48.592;8.850;2023-05-10T04:24:20;13.40;99.90
3942;DHT22;1985;48.592;8.850;2023-05-10T04:26:45;13.30;99.90
3942;DHT22;1985;48.592;8.850;2023-05-10T04:29:11;13.20;99.90
3942;DHT22;1985;48.592;8.850;2023-05-10T04:31:37;13.30;99.90
3942;DHT22;1985;48.592;8.850;2023-05-10T04:34:02;13.40;99.90
3942;DHT22;1985;48.592;8.850;2023-05-10T04:36:28;13.40;99.90
3942;DHT22;1985;48.592;8.850;2023-05-10T04:38:54;13.30;99.90
3942;DHT22;1985;48.592;8.850;2023-05-10T04:41:20;13.00;99.90
3942;DHT22;1985;48.592;8.850;2023-05-10T04:43:46;12.80;99.90
3942;DHT22;1985;48.592;8.850;2023-05-10T04:46:14;12.80;99.90
3942;DHT22;1985;48.592;8.850;2023-05-10T04:48:39;12.80;99.90
3942;DHT22;1985;48.592;8.850;2023-05-10T04:51:05;12.90;99.90
3942;DHT22;1985;48.592;8.850;2023-05-10T04:53:32;12.80;99.90
3942;DHT22;1985;48.592;8.850;2023-05-10T04:55:57;12.60;99.90
3942;DHT22;1985;48.592;8.850;2023-05-10T04:58:23;12.70;99.90
3942;DHT22;1985;48.592;8.850;2023-05-10T05:00:48;12.70;99.90
3942;DHT22;1985;48.592;8.850;2023-05-10T05:03:14;12.50;99.90
3942;DHT22;1985;48.592;8.850;2023-05-10T05:05:40;12.50;99.90
3942;DHT22;1985;48.592;8.850;2023-05-10T05:08:05;12.40;99.90
3942;DHT22;1985;48.592;8.850;2023-05-10T05:10:31;12.40;99.90
3942;DHT22;1985;48.592;8.850;2023-05-10T05:12:57;12.30;99.90
3942;DHT22;1985;48.592;8.850;2023-05-10T05:15:22;12.30;99.90
3942;DHT22;1985;48.592;8.850;2023-05-10T05:17:48;12.30;99.90
3942;DHT22;1985;48.592;8.850;2023-05-10T05:20:14;12.50;99.90
3942;DHT22;1985;48.592;8.850;2023-05-10T05:22:39;12.50;99.90
3942;DHT22;1985;48.592;8.850;2023-05-10T05:25:05;12.50;99.90
3942;DHT22;1985;48.592;8.850;2023-05-10T05:27:31;12.40;99.90
3942;DHT22;1985;48.592;8.850;2023-05-10T05:29:57;12.40;99.90
3942;DHT22;1985;48.592;8.850;2023-05-10T05:32:24;12.40;99.90
3942;DHT22;1985;48.592;8.850;2023-05-10T05:34:50;12.30;99.90
3942;DHT22;1985;48.592;8.850;2023-05-10T05:37:17;12.30;99.90
3942;DHT22;1985;48.592;8.850;2023-05-10T05:39:43;12.30;99.90
3942;DHT22;1985;48.592;8.850;2023-05-10T05:42:09;12.30;99.90
3942;DHT22;1985;48.592;8.850;2023-05-10T05:44:35;12.30;99.90
3942;DHT22;1985;48.592;8.850;2023-05-10T05:47:01;12.30;99.90
3942;DHT22;1985;48.592;8.850;2023-05-10T05:49:26;12.20;99.90
3942;DHT22;1985;48.592;8.850;2023-05-10T05:51:52;12.30;99.90
3942;DHT22;1985;48.592;8.850;2023-05-10T05:54:18;12.30;99.90
3942;DHT22;1985;48.592;8.850;2023-05-10T05:56:43;12.20;99.90
3942;DHT22;1985;48.592;8.850;2023-05-10T05:59:10;12.30;99.90
3942;DHT22;1985;48.592;8.850;2023-05-10T06:01:35;12.40;99.90
3942;DHT22;1985;48.592;8.850;2023-05-10T06:04:01;12.40;99.90
3942;DHT22;1985;48.592;8.850;2023-05-10T06:06:27;12.40;99.90
3942;DHT22;1985;48.592;8.850;2023-05-10T06:08:53;12.50;99.90
3942;DHT22;1985;48.592;8.850;2023-05-10T06:11:18;12.70;99.90
3942;DHT22;1985;48.592;8.850;2023-05-10T06:13:44;12.70;99.90
3942;DHT22;1985;48.592;8.850;2023-05-10T06:16:10;12.80;99.90
3942;DHT22;1985;48.592;8.850;2023-05-10T06:18:35;13.00;99.90
3942;DHT22;1985;48.592;8.850;2023-05-10T06:21:01;13.00;99.90
3942;DHT22;1985;48.592;8.850;2023-05-10T06:23:27;13.10;99.90
3942;DHT22;1985;48.592;8.850;2023-05-10T06:25:52;13.30;99.90
3942;DHT22;1985;48.592;8.850;2023-05-10T06:28:18;13.40;99.90
3942;DHT22;1985;48.592;8.850;2023-05-10T06:30:43;13.60;99.90
3942;DHT22;1985;48.592;8.850;2023-05-10T06:33:09;13.50;99.90
3942;DHT22;1985;48.592;8.850;2023-05-10T06:35:35;13.50;99.90
3942;DHT22;1985;48.592;8.850;2023-05-10T06:38:02;13.50;99.90
3942;DHT22;1985;48.592;8.850;2023-05-10T06:40:27;13.50;99.90
3942;DHT22;1985;48.592;8.850;2023-05-10T06:42:53;13.40;99.90
3942;DHT22;1985;48.592;8.850;2023-05-10T06:45:19;13.40;99.90
3942;DHT22;1985;48.592;8.850;2023-05-10T06:47:44;13.30;99.90
3942;DHT22;1985;48.592;8.850;2023-05-10T06:50:11;13.20;99.90
3942;DHT22;1985;48.592;8.850;2023-05-10T06:52:37;13.20;99.90
3942;DHT22;1985;48.592;8.850;2023-05-10T06:55:06;13.30;99.90
3942;DHT22;1985;48.592;8.850;2023-05-10T06:57:31;13.40;99.90
3942;DHT22;1985;48.592;8.850;2023-05-10T06:59:58;13.40;99.90
3942;DHT22;1985;48.592;8.850;2023-05-10T07:02:24;13.40;99.90
3942;DHT22;1985;48.592;8.850;2023-05-10T07:04:49;13.50;99.90
3942;DHT22;1985;48.592;8.850;2023-05-10T07:07:17;13.50;99.90
3942;DHT22;1985;48.592;8.850;2023-05-10T07:09:42;13.60;99.90
3942;DHT22;1985;48.592;8.850;2023-05-10T07:12:08;13.40;99.90
3942;DHT22;1985;48.592;8.850;2023-05-10T07:14:34;13.40;99.90
3942;DHT22;1985;48.592;8.850;2023-05-10T07:16:59;13.40;99.90
3942;DHT22;1985;48.592;8.850;2023-05-10T07:19:25;13.30;99.90
3942;DHT22;1985;48.592;8.850;2023-05-10T07:21:50;13.30;99.90
3942;DHT22;1985;48.592;8.850;2023-05-10T07:24:16;13.40;99.90
3942;DHT22;1985;48.592;8.850;2023-05-10T07:26:42;13.50;99.90
3942;DHT22;1985;48.592;8.850;2023-05-10T07:29:07;13.60;99.90
3942;DHT22;1985;48.592;8.850;2023-05-10T07:31:33;13.60;99.90
3942;DHT22;1985;48.592;8.850;2023-05-10T07:33:58;13.80;99.90
3942;DHT22;1985;48.592;8.850;2023-05-10T07:36:24;13.90;99.90
3942;DHT22;1985;48.592;8.850;2023-05-10T07:38:50;13.90;99.90
3942;DHT22;1985;48.592;8.850;2023-05-10T07:41:15;13.90;99.90
3942;DHT22;1985;48.592;8.850;2023-05-10T07:43:41;14.00;99.90
3942;DHT22;1985;48.592;8.850;2023-05-10T07:46:07;14.00;99.90
3942;DHT22;1985;48.592;8.850;2023-05-10T07:48:32;13.90;99.90
3942;DHT22;1985;48.592;8.850;2023-05-10T07:50:58;13.90;99.90
3942;DHT22;1985;48.592;8.850;2023-05-10T07:53:26;14.00;99.90
3942;DHT22;1985;48.592;8.850;2023-05-10T07:55:54;14.10;99.90
3942;DHT22;1985;48.592;8.850;2023-05-10T07:58:22;14.10;99.90
3942;DHT22;1985;48.592;8.850;2023-05-10T08:00:47;14.10;99.90
3942;DHT22;1985;48.592;8.850;2023-05-10T08:03:14;14.10;99.90
3942;DHT22;1985;48.592;8.850;2023-05-10T08:05:40;14.10;99.90
3942;DHT22;1985;48.592;8.850;2023-05-10T08:08:06;14.20;99.90
3942;DHT22;1985;48.592;8.850;2023-05-10T08:10:31;14.40;99.90
3942;DHT22;1985;48.592;8.850;2023-05-10T08:12:57;14.50;99.90
3942;DHT22;1985;48.592;8.850;2023-05-10T08:15:24;14.50;99.90
3942;DHT22;1985;48.592;8.850;2023-05-10T08:17:51;14.40;99.90
3942;DHT22;1985;48.592;8.850;2023-05-10T08:20:17;14.50;99.90
3942;DHT22;1985;48.592;8.850;2023-05-10T08:22:45;14.30;99.90
3942;DHT22;1985;48.592;8.850;2023-05-10T08:25:10;14.40;99.90
3942;DHT22;1985;48.592;8.850;2023-05-10T08:27:36;14.70;99.90
3942;DHT22;1985;48.592;8.850;2023-05-10T08:30:02;14.90;99.90
3942;DHT22;1985;48.592;8.850;2023-05-10T08:32:28;15.10;99.90
3942;DHT22;1985;48.592;8.850;2023-05-10T08:34:53;15.20;99.90
3942;DHT22;1985;48.592;8.850;2023-05-10T08:37:19;15.10;99.90
3942;DHT22;1985;48.592;8.850;2023-05-10T08:39:45;15.00;99.90
3942;DHT22;1985;48.592;8.850;2023-05-10T08:42:16;14.70;99.90
3942;DHT22;1985;48.592;8.850;2023-05-10T08:44:45;14.50;99.90
3942;DHT22;1985;48.592;8.850;2023-05-10T08:47:11;14.60;99.90
3942;DHT22;1985;48.592;8.850;2023-05-10T08:49:38;14.60;99.90
3942;DHT22;1985;48.592;8.850;2023-05-10T08:52:04;14.80;99.90
3942;DHT22;1985;48.592;8.850;2023-05-10T08:54:32;14.90;99.90
3942;DHT22;1985;48.592;8.850;2023-05-10T08:56:58;15.10;99.90
3942;DHT22;1985;48.592;8.850;2023-05-10T08:59:24;14.90;99.90
3942;DHT22;1985;48.592;8.850;2023-05-10T09:01:50;14.90;99.90
3942;DHT22;1985;48.592;8.850;2023-05-10T09:04:16;15.20;99.90
3942;DHT22;1985;48.592;8.850;2023-05-10T09:06:42;15.20;99.90
3942;DHT22;1985;48.592;8.850;2023-05-10T09:09:08;15.60;99.90
3942;DHT22;1985;48.592;8.850;2023-05-10T09:11:33;15.70;99.90
3942;DHT22;1985;48.592;8.850;2023-05-10T09:14:01;15.80;99.90
3942;DHT22;1985;48.592;8.850;2023-05-10T09:16:26;15.80;99.90
3942;DHT22;1985;48.592;8.850;2023-05-10T09:18:52;15.90;99.90
3942;DHT22;1985;48.592;8.850;2023-05-10T09:21:19;15.70;99.90
3942;DHT22;1985;48.592;8.850;2023-05-10T09:23:46;15.60;99.90
3942;DHT22;1985;48.592;8.850;2023-05-10T09:26:12;15.50;99.90
3942;DHT22;1985;48.592;8.850;2023-05-10T09:31:16;15.20;99.90
3942;DHT22;1985;48.592;8.850;2023-05-10T09:33:48;15.60;99.90
3942;DHT22;1985;48.592;8.850;2023-05-10T09:36:14;15.60;99.90
3942;DHT22;1985;48.592;8.850;2023-05-10T09:38:51;15.80;99.90
3942;DHT22;1985;48.592;8.850;2023-05-10T09:41:18;16.30;99.90
3942;DHT22;1985;48.592;8.850;2023-05-10T09:43:44;16.40;99.90
3942;DHT22;1985;48.592;8.850;2023-05-10T09:46:09;16.80;99.90
3942;DHT22;1985;48.592;8.850;2023-05-10T09:48:45;17.20;99.90
3942;DHT22;1985;48.592;8.850;2023-05-10T09:51:25;17.30;99.90
3942;DHT22;1985;48.592;8.850;2023-05-10T09:54:15;17.10;99.90
3942;DHT22;1985;48.592;8.850;2023-05-10T09:56:41;17.40;99.90
3942;DHT22;1985;48.592;8.850;2023-05-10T09:59:09;17.60;99.90
3942;DHT22;1985;48.592;8.850;2023-05-10T10:01:35;17.50;99.90
3942;DHT22;1985;48.592;8.850;2023-05-10T10:04:05;17.10;99.90
3942;DHT22;1985;48.592;8.850;2023-05-10T10:06:41;16.50;99.90
3942;DHT22;1985;48.592;8.850;2023-05-10T10:09:07;16.00;99.90
3942;DHT22;1985;48.592;8.850;2023-05-10T10:11:37;16.10;99.90
3942;DHT22;1985;48.592;8.850;2023-05-10T10:14:04;15.80;99.90
3942;DHT22;1985;48.592;8.850;2023-05-10T10:16:30;15.40;99.90
3942;DHT22;1985;48.592;8.850;2023-05-10T10:18:56;15.00;99.90
3942;DHT22;1985;48.592;8.850;2023-05-10T10:21:23;14.80;99.90
3942;DHT22;1985;48.592;8.850;2023-05-10T10:23:49;14.70;99.90
3942;DHT22;1985;48.592;8.850;2023-05-10T10:26:17;14.50;99.90
3942;DHT22;1985;48.592;8.850;2023-05-10T10:34:01;13.90;99.90
3942;DHT22;1985;48.592;8.850;2023-05-10T10:36:29;13.60;99.90
3942;DHT22;1985;48.592;8.850;2023-05-10T10:39:00;13.70;99.90
3942;DHT22;1985;48.592;8.850;2023-05-10T10:41:34;13.80;99.90
3942;DHT22;1985;48.592;8.850;2023-05-10T10:49:26;14.30;99.90
3942;DHT22;1985;48.592;8.850;2023-05-10T10:52:25;14.40;99.90
3942;DHT22;1985;48.592;8.850;2023-05-10T10:57:45;15.10;99.90
3942;DHT22;1985;48.592;8.850;2023-05-10T11:03:07;15.20;99.90
3942;DHT22;1985;48.592;8.850;2023-05-10T11:05:43;15.40;99.90
3942;DHT22;1985;48.592;8.850;2023-05-10T11:08:21;15.70;99.90
3942;DHT22;1985;48.592;8.850;2023-05-10T11:11:03;15.70;99.90
3942;DHT22;1985;48.592;8.850;2023-05-10T11:15:55;15.10;99.90
3942;DHT22;1985;48.592;8.850;2023-05-10T11:18:29;14.80;99.90
3942;DHT22;1985;48.592;8.850;2023-05-10T11:23:32;15.00;99.90
3942;DHT22;1985;48.592;8.850;2023-05-10T11:26:00;14.70;99.90
3942;DHT22;1985;48.592;8.850;2023-05-10T11:28:27;15.00;99.90
3942;DHT22;1985;48.592;8.850;2023-05-10T11:30:54;15.20;99.90
3942;DHT22;1985;48.592;8.850;2023-05-10T11:33:20;15.40;99.90
3942;DHT22;1985;48.592;8.850;2023-05-10T11:35:46;15.40;99.90
3942;DHT22;1985;48.592;8.850;2023-05-10T11:38:13;15.30;99.90
3942;DHT22;1985;48.592;8.850;2023-05-10T11:40:40;15.10;99.90
3942;DHT22;1985;48.592;8.850;2023-05-10T11:43:06;15.10;99.90
3942;DHT22;1985;48.592;8.850;2023-05-10T11:45:32;15.00;99.90
3942;DHT22;1985;48.592;8.850;2023-05-10T11:47:59;14.80;99.90
3942;DHT22;1985;48.592;8.850;2023-05-10T11:50:25;14.70;99.90
3942;DHT22;1985;48.592;8.850;2023-05-10T11:52:55;14.80;99.90
3942;DHT22;1985;48.592;8.850;2023-05-10T11:55:21;14.60;99.90
3942;DHT22;1985;48.592;8.850;2023-05-10T11:57:47;14.80;99.90
3942;DHT22;1985;48.592;8.850;2023-05-10T12:00:16;14.70;99.90
3942;DHT22;1985;48.592;8.850;2023-05-10T12:02:42;14.70;99.90
3942;DHT22;1985;48.592;8.850;2023-05-10T12:05:08;14.50;99.90
3942;DHT22;1985;48.592;8.850;2023-05-10T12:07:35;14.40;99.90
3942;DHT22;1985;48.592;8.850;2023-05-10T12:12:43;14.40;99.90
3942;DHT22;1985;48.592;8.850;2023-05-10T12:15:27;14.20;99.90
3942;DHT22;1985;48.592;8.850;2023-05-10T12:17:53;14.30;99.90
3942;DHT22;1985;48.592;8.850;2023-05-10T12:20:23;14.30;99.90
3942;DHT22;1985;48.592;8.850;2023-05-10T12:22:57;14.30;99.90
3942;DHT22;1985;48.592;8.850;2023-05-10T12:25:29;14.40;99.90
3942;DHT22;1985;48.592;8.850;2023-05-10T12:27:59;14.70;99.90
3942;DHT22;1985;48.592;8.850;2023-05-10T12:30:30;14.80;99.90
3942;DHT22;1985;48.592;8.850;2023-05-10T12:33:14;15.00;99.90
3942;DHT22;1985;48.592;8.850;2023-05-10T12:35:45;15.10;99.90
3942;DHT22;1985;48.592;8.850;2023-05-10T12:41:04;15.00;99.90
3942;DHT22;1985;48.592;8.850;2023-05-10T12:43:30;14.90;99.90
3942;DHT22;1985;48.592;8.850;2023-05-10T12:45:56;14.80;99.90
3942;DHT22;1985;48.592;8.850;2023-05-10T12:48:22;14.80;99.90
3942;DHT22;1985;48.592;8.850;2023-05-10T12:50:48;14.90;99.90
3942;DHT22;1985;48.592;8.850;2023-05-10T12:53:14;15.00;99.90
3942;DHT22;1985;48.592;8.850;2023-05-10T12:55:44;14.80;99.90
3942;DHT22;1985;48.592;8.850;2023-05-10T12:58:10;14.90;99.90
3942;DHT22;1985;48.592;8.850;2023-05-10T13:00:35;14.80;99.90
3942;DHT22;1985;48.592;8.850;2023-05-10T13:03:04;14.80;99.90
3942;DHT22;1985;48.592;8.850;2023-05-10T13:05:32;14.90;99.90
3942;DHT22;1985;48.592;8.850;2023-05-10T13:07:58;15.00;99.90
3942;DHT22;1985;48.592;8.850;2023-05-10T13:10:23;15.00;99.90
3942;DHT22;1985;48.592;8.850;2023-05-10T13:12:50;15.00;99.90
3942;DHT22;1985;48.592;8.850;2023-05-10T13:15:16;15.10;99.90
3942;DHT22;1985;48.592;8.850;2023-05-10T13:17:42;15.00;99.90
3942;DHT22;1985;48.592;8.850;2023-05-10T13:20:08;14.90;99.90
3942;DHT22;1985;48.592;8.850;2023-05-10T13:22:35;14.80;99.90
3942;DHT22;1985;48.592;8.850;2023-05-10T13:25:01;15.10;99.90
3942;DHT22;1985;48.592;8.850;2023-05-10T13:27:27;15.40;99.90
3942;DHT22;1985;48.592;8.850;2023-05-10T13:29:52;15.40;99.90
3942;DHT22;1985;48.592;8.850;2023-05-10T13:32:18;15.50;99.90
3942;DHT22;1985;48.592;8.850;2023-05-10T13:34:44;15.60;99.90
3942;DHT22;1985;48.592;8.850;2023-05-10T13:37:10;15.90;99.90
3942;DHT22;1985;48.592;8.850;2023-05-10T13:39:35;15.90;99.90
3942;DHT22;1985;48.592;8.850;2023-05-10T13:42:03;16.10;99.90
3942;DHT22;1985;48.592;8.850;2023-05-10T13:44:28;16.00;99.90
3942;DHT22;1985;48.592;8.850;2023-05-10T13:46:54;16.00;99.90
3942;DHT22;1985;48.592;8.850;2023-05-10T13:49:20;16.10;99.90
3942;DHT22;1985;48.592;8.850;2023-05-10T13:51:47;16.00;99.90
3942;DHT22;1985;48.592;8.850;2023-05-10T13:54:13;15.90;99.90
3942;DHT22;1985;48.592;8.850;2023-05-10T13:56:39;16.10;99.90
3942;DHT22;1985;48.592;8.850;2023-05-10T13:59:04;16.20;99.90
3942;DHT22;1985;48.592;8.850;2023-05-10T14:01:30;16.40;99.90
3942;DHT22;1985;48.592;8.850;2023-05-10T14:03:56;16.10;99.90
3942;DHT22;1985;48.592;8.850;2023-05-10T14:06:22;16.00;99.90
3942;DHT22;1985;48.592;8.850;2023-05-10T14:08:47;16.00;99.90
3942;DHT22;1985;48.592;8.850;2023-05-10T14:11:13;15.90;99.90
3942;DHT22;1985;48.592;8.850;2023-05-10T14:13:39;15.90;99.40
3942;DHT22;1985;48.592;8.850;2023-05-10T14:16:05;16.00;99.90
3942;DHT22;1985;48.592;8.850;2023-05-10T14:18:30;16.00;99.90
3942;DHT22;1985;48.592;8.850;2023-05-10T14:20:56;15.80;99.30
3942;DHT22;1985;48.592;8.850;2023-05-10T14:23:22;16.00;99.90
3942;DHT22;1985;48.592;8.850;2023-05-10T14:25:51;16.10;99.90
3942;DHT22;1985;48.592;8.850;2023-05-10T14:28:18;16.20;99.90
3942;DHT22;1985;48.592;8.850;2023-05-10T14:30:45;16.20;99.90
3942;DHT22;1985;48.592;8.850;2023-05-10T14:33:11;16.20;99.90
3942;DHT22;1985;48.592;8.850;2023-05-10T14:35:37;16.50;99.90
3942;DHT22;1985;48.592;8.850;2023-05-10T14:38:03;16.50;97.80
3942;DHT22;1985;48.592;8.850;2023-05-10T14:40:29;16.80;99.00
3942;DHT22;1985;48.592;8.850;2023-05-10T14:42:55;16.70;98.30
3942;DHT22;1985;48.592;8.850;2023-05-10T14:45:21;16.60;98.10
3942;DHT22;1985;48.592;8.850;2023-05-10T14:47:48;16.30;97.70
3942;DHT22;1985;48.592;8.850;2023-05-10T14:50:14;16.40;97.20
3942;DHT22;1985;48.592;8.850;2023-05-10T14:52:39;16.50;96.60
3942;DHT22;1985;48.592;8.850;2023-05-10T14:55:05;16.70;96.60
3942;DHT22;1985;48.592;8.850;2023-05-10T14:57:31;16.70;95.90
3942;DHT22;1985;48.592;8.850;2023-05-10T14:59:57;17.00;97.00
3942;DHT22;1985;48.592;8.850;2023-05-10T15:02:23;17.10;94.90
3942;DHT22;1985;48.592;8.850;2023-05-10T15:04:49;16.80;94.50
3942;DHT22;1985;48.592;8.850;2023-05-10T15:07:14;16.80;96.90
3942;DHT22;1985;48.592;8.850;2023-05-10T15:09:41;16.90;96.30
3942;DHT22;1985;48.592;8.850;2023-05-10T15:12:07;17.00;96.20
3942;DHT22;1985;48.592;8.850;2023-05-10T15:14:33;16.90;95.30
3942;DHT22;1985;48.592;8.850;2023-05-10T15:16:59;16.80;95.30
3942;DHT22;1985;48.592;8.850;2023-05-10T15:19:25;16.90;95.90
3942;DHT22;1985;48.592;8.850;2023-05-10T15:21:50;16.90;96.20
3942;DHT22;1985;48.592;8.850;2023-05-10T15:24:16;16.70;95.20
3942;DHT22;1985;48.592;8.850;2023-05-10T15:26:42;16.60;95.70
3942;DHT22;1985;48.592;8.850;2023-05-10T15:29:07;16.70;96.80
3942;DHT22;1985;48.592;8.850;2023-05-10T15:31:33;16.90;95.80
3942;DHT22;1985;48.592;8.850;2023-05-10T15:34:01;16.70;95.70
3942;DHT22;1985;48.592;8.850;2023-05-10T15:36:27;16.80;96.10
3942;DHT22;1985;48.592;8.850;2023-05-10T15:38:54;16.90;95.90
3942;DHT22;1985;48.592;8.850;2023-05-10T15:41:20;16.70;95.90
3942;DHT22;1985;48.592;8.850;2023-05-10T15:43:46;16.80;96.10
3942;DHT22;1985;48.592;8.850;2023-05-10T15:46:11;17.00;96.70
3942;DHT22;1985;48.592;8.850;2023-05-10T15:48:37;17.10;94.90
3942;DHT22;1985;48.592;8.850;2023-05-10T15:51:04;16.80;94.80
3942;DHT22;1985;48.592;8.850;2023-05-10T15:53:30;16.70;94.00
3942;DHT22;1985;48.592;8.850;2023-05-10T15:55:56;16.70;95.70
3942;DHT22;1985;48.592;8.850;2023-05-10T15:58:21;16.70;96.10
3942;DHT22;1985;48.592;8.850;2023-05-10T16:00:47;16.50;98.20
3942;DHT22;1985;48.592;8.850;2023-05-10T16:03:13;16.40;98.00
3942;DHT22;1985;48.592;8.850;2023-05-10T16:05:38;16.00;98.00
3942;DHT22;1985;48.592;8.850;2023-05-10T16:08:04;15.60;99.90
3942;DHT22;1985;48.592;8.850;2023-05-10T16:10:32;15.10;99.90
3942;DHT22;1985;48.592;8.850;2023-05-10T16:12:58;14.90;99.90
3942;DHT22;1985;48.592;8.850;2023-05-10T16:15:24;14.80;99.90
3942;DHT22;1985;48.592;8.850;2023-05-10T16:17:50;14.50;99.90
3942;DHT22;1985;48.592;8.850;2023-05-10T16:20:16;14.40;99.90
3942;DHT22;1985;48.592;8.850;2023-05-10T16:22:42;14.30;99.90
3942;DHT22;1985;48.592;8.850;2023-05-10T16:25:09;14.20;99.90
3942;DHT22;1985;48.592;8.850;2023-05-10T16:27:35;14.10;99.90
3942;DHT22;1985;48.592;8.850;2023-05-10T16:30:01;14.00;99.90
3942;DHT22;1985;48.592;8.850;2023-05-10T16:32:27;14.00;99.90
3942;DHT22;1985;48.592;8.850;2023-05-10T16:34:53;14.00;99.90
3942;DHT22;1985;48.592;8.850;2023-05-10T16:37:18;13.90;99.90
3942;DHT22;1985;48.592;8.850;2023-05-10T16:39:44;13.50;99.90
3942;DHT22;1985;48.592;8.850;2023-05-10T16:42:10;13.40;99.90
3942;DHT22;1985;48.592;8.850;2023-05-10T16:44:35;13.50;99.90
3942;DHT22;1985;48.592;8.850;2023-05-10T16:47:01;13.60;99.90
3942;DHT22;1985;48.592;8.850;2023-05-10T16:49:27;13.80;99.90
3942;DHT22;1985;48.592;8.850;2023-05-10T16:51:53;13.80;99.90